Time;durP1;ratioP1;P1;durP2;ratioP2;P2;SDS_P1;SDS_P2;PMS_P1;PMS_P2;Temp;Humidity;BMP_temperature;BMP_pressure;BME280_temperature;BME280_humidity;BME280_pressure;Samples;Min_cycle;Max_cycle;Signal;HPM_P1;HPM_P2
2022/05/19 00:01:23;;;;;;;;;;;23.00;58.00;;;;;;4999765;28;19914;-69
2022/05/19 00:03:48;;;;;;;;;;;23.00;58.00;;;;;;5000529;28;19924;-68
2022/05/19 00:06:14;;;;;;;;;;;23.00;58.00;;;;;;4987138;28;19918;-68
2022/05/19 00:08:39;;;;;;;;;;;23.00;58.00;;;;;;4980637;28;19909;-68
2022/05/19 00:11:06;;;;;;;;;;;23.00;58.00;;;;;;4997853;28;19918;-68
2022/05/19 00:13:32;;;;;;;;;;;23.00;58.00;;;;;;5001559;28;19914;-68
2022/05/19 00:15:57;;;;;;;;;;;23.00;58.00;;;;;;4988971;28;19917;-68
2022/05/19 00:18:23;;;;;;;;;;;23.00;58.00;;;;;;4981309;28;19918;-67
2022/05/19 00:20:48;;;;;;;;;;;23.00;58.10;;;;;;4992343;28;19980;-68
2022/05/19 00:23:14;;;;;;;;;;;23.00;58.00;;;;;;5002758;28;19964;-68
2022/05/19 00:25:39;;;;;;;;;;;23.00;58.10;;;;;;4993142;28;20670;-68
2022/05/19 00:28:05;;;;;;;;;;;23.00;58.00;;;;;;4982250;28;19917;-68
2022/05/19 00:30:31;;;;;;;;;;;23.00;58.00;;;;;;4989796;28;19913;-69
2022/05/19 00:32:56;;;;;;;;;;;23.00;58.10;;;;;;5001776;28;19913;-68
2022/05/19 00:35:22;;;;;;;;;;;23.00;58.00;;;;;;4997862;28;19945;-68
2022/05/19 00:37:47;;;;;;;;;;;23.00;58.10;;;;;;4982769;28;20404;-68
2022/05/19 00:40:13;;;;;;;;;;;23.00;58.00;;;;;;4984849;28;19940;-68
2022/05/19 00:42:44;;;;;;;;;;;23.00;58.00;;;;;;5000675;28;19916;-68
2022/05/19 00:45:14;;;;;;;;;;;22.90;58.00;;;;;;5000423;28;19913;-68
2022/05/19 00:47:41;;;;;;;;;;;23.00;58.00;;;;;;4982452;28;20003;-69
2022/05/19 00:50:08;;;;;;;;;;;23.00;58.00;;;;;;4982212;28;19914;-70
2022/05/19 00:52:34;;;;;;;;;;;23.00;58.00;;;;;;5000803;28;20364;-74
2022/05/19 00:55:05;;;;;;;;;;;23.00;58.00;;;;;;5001381;28;19916;-68
2022/05/19 00:57:31;;;;;;;;;;;23.00;58.00;;;;;;4963561;28;19914;-69
2022/05/19 01:00:29;;;;;;;;;;;23.00;58.00;;;;;;4961635;28;19929;-68
2022/05/19 01:02:58;;;;;;;;;;;22.90;58.00;;;;;;4948806;28;20578;-69
2022/05/19 01:05:40;;;;;;;;;;;23.00;58.10;;;;;;4981230;28;19921;-69
2022/05/19 01:08:15;;;;;;;;;;;22.90;58.00;;;;;;4958227;28;21237;-68
2022/05/19 01:10:40;;;;;;;;;;;23.00;58.00;;;;;;4999116;28;20509;-68
2022/05/19 01:13:06;;;;;;;;;;;23.00;58.00;;;;;;4980950;28;19916;-68
2022/05/19 01:15:34;;;;;;;;;;;22.90;58.00;;;;;;4965202;28;19913;-68
2022/05/19 01:18:01;;;;;;;;;;;22.90;58.00;;;;;;5000530;28;20000;-69
2022/05/19 01:20:26;;;;;;;;;;;23.00;58.10;;;;;;5000013;28;21280;-69
2022/05/19 01:22:54;;;;;;;;;;;23.00;58.00;;;;;;4980876;28;19914;-68
2022/05/19 01:25:29;;;;;;;;;;;23.00;58.00;;;;;;4981864;28;19914;-68
2022/05/19 01:27:55;;;;;;;;;;;23.00;58.00;;;;;;4982958;28;19920;-68
2022/05/19 01:30:20;;;;;;;;;;;22.90;58.60;;;;;;4983603;28;19918;-69
2022/05/19 01:32:46;;;;;;;;;;;22.90;58.00;;;;;;4985297;28;19913;-68
2022/05/19 01:35:11;;;;;;;;;;;22.90;58.00;;;;;;4972063;28;19914;-68
2022/05/19 01:37:37;;;;;;;;;;;22.90;58.60;;;;;;4995303;28;19914;-69
2022/05/19 01:40:03;;;;;;;;;;;22.90;57.90;;;;;;4999635;28;19972;-68
2022/05/19 01:42:39;;;;;;;;;;;22.90;58.00;;;;;;4986581;28;19914;-68
2022/05/19 01:45:08;;;;;;;;;;;23.00;58.00;;;;;;4979838;28;20500;-68
2022/05/19 01:47:41;;;;;;;;;;;22.90;57.90;;;;;;4985954;28;21259;-68
2022/05/19 01:50:06;;;;;;;;;;;22.90;57.90;;;;;;4999385;28;19922;-68
2022/05/19 01:52:40;;;;;;;;;;;22.90;57.90;;;;;;4988404;28;20685;-68
2022/05/19 01:55:08;;;;;;;;;;;22.90;57.90;;;;;;4979725;28;20549;-68
2022/05/19 01:57:38;;;;;;;;;;;22.90;57.90;;;;;;4993213;28;20023;-69
2022/05/19 02:00:06;;;;;;;;;;;22.90;58.00;;;;;;5000052;28;19913;-69
2022/05/19 02:02:37;;;;;;;;;;;22.90;57.90;;;;;;4989343;28;19922;-69
2022/05/19 02:05:06;;;;;;;;;;;22.90;57.90;;;;;;4980742;28;20345;-68
2022/05/19 02:07:32;;;;;;;;;;;22.90;57.90;;;;;;4991433;28;19925;-69
2022/05/19 02:10:05;;;;;;;;;;;22.90;57.90;;;;;;4999858;28;19914;-68
2022/05/19 02:12:33;;;;;;;;;;;22.90;57.90;;;;;;4972765;28;19921;-67
2022/05/19 02:14:59;;;;;;;;;;;22.90;58.00;;;;;;4972678;28;19920;-67
2022/05/19 02:17:25;;;;;;;;;;;22.90;57.90;;;;;;5000848;28;20542;-66
2022/05/19 02:19:51;;;;;;;;;;;22.90;57.90;;;;;;5003206;28;19913;-67
2022/05/19 02:22:17;;;;;;;;;;;22.90;58.00;;;;;;4998642;28;19910;-67
2022/05/19 02:24:47;;;;;;;;;;;22.90;57.90;;;;;;4985109;28;19920;-68
2022/05/19 02:27:21;;;;;;;;;;;22.90;57.90;;;;;;4988947;28;20442;-68
2022/05/19 02:29:46;;;;;;;;;;;22.90;57.90;;;;;;5003048;28;20414;-66
2022/05/19 02:32:12;;;;;;;;;;;22.90;57.90;;;;;;5001247;28;19918;-66
2022/05/19 02:34:37;;;;;;;;;;;22.90;57.90;;;;;;4967532;28;20634;-67
2022/05/19 02:37:03;;;;;;;;;;;22.90;57.90;;;;;;4986060;28;19972;-68
2022/05/19 02:39:28;;;;;;;;;;;22.90;57.90;;;;;;5002482;28;19914;-66
2022/05/19 02:41:54;;;;;;;;;;;22.90;57.90;;;;;;5003892;28;19923;-66
2022/05/19 02:44:19;;;;;;;;;;;22.90;57.90;;;;;;4983270;28;19949;-67
2022/05/19 02:46:44;;;;;;;;;;;22.90;57.90;;;;;;4983614;28;19914;-66
2022/05/19 02:49:10;;;;;;;;;;;22.90;57.90;;;;;;5001329;28;19940;-67
2022/05/19 02:51:35;;;;;;;;;;;22.90;57.90;;;;;;5004432;28;19909;-66
2022/05/19 02:54:01;;;;;;;;;;;22.90;57.90;;;;;;4986789;28;20293;-66
2022/05/19 02:56:26;;;;;;;;;;;22.90;57.90;;;;;;4984679;28;19914;-66
2022/05/19 02:58:52;;;;;;;;;;;22.90;57.90;;;;;;4996736;28;19959;-67
2022/05/19 03:01:17;;;;;;;;;;;22.90;57.90;;;;;;5003176;28;19963;-66
2022/05/19 03:03:43;;;;;;;;;;;22.80;57.80;;;;;;4991329;28;20600;-69
2022/05/19 03:06:08;;;;;;;;;;;22.80;57.80;;;;;;4967532;28;19910;-68
2022/05/19 03:08:34;;;;;;;;;;;22.80;57.90;;;;;;4994199;28;19936;-68
2022/05/19 03:10:59;;;;;;;;;;;22.80;57.80;;;;;;5003836;28;20402;-66
2022/05/19 03:13:25;;;;;;;;;;;22.90;57.90;;;;;;4994045;28;19946;-66
2022/05/19 03:15:50;;;;;;;;;;;22.80;57.80;;;;;;4984573;28;19913;-66
2022/05/19 03:18:16;;;;;;;;;;;22.90;57.90;;;;;;4989466;28;19917;-68
2022/05/19 03:20:41;;;;;;;;;;;22.80;57.80;;;;;;5002108;28;20419;-67
2022/05/19 03:23:07;;;;;;;;;;;22.80;57.70;;;;;;4998856;28;19914;-67
2022/05/19 03:25:32;;;;;;;;;;;22.80;57.70;;;;;;4982589;28;20339;-66
2022/05/19 03:27:58;;;;;;;;;;;22.80;57.70;;;;;;4985099;28;19940;-66
2022/05/19 03:30:23;;;;;;;;;;;22.90;57.70;;;;;;5001589;28;19920;-67
2022/05/19 03:32:48;;;;;;;;;;;22.80;57.70;;;;;;4994229;28;19924;-65
2022/05/19 03:35:14;;;;;;;;;;;22.80;57.60;;;;;;4992440;28;19910;-67
2022/05/19 03:37:39;;;;;;;;;;;22.80;57.60;;;;;;4983475;28;19926;-66
2022/05/19 03:40:06;;;;;;;;;;;22.80;57.70;;;;;;5001906;28;20642;-66
2022/05/19 03:42:32;;;;;;;;;;;22.80;57.60;;;;;;4985640;28;20007;-65
2022/05/19 03:44:57;;;;;;;;;;;22.80;57.50;;;;;;4984748;28;19914;-66
2022/05/19 03:47:23;;;;;;;;;;;22.80;57.50;;;;;;4982577;28;19910;-67
2022/05/19 03:49:48;;;;;;;;;;;22.80;57.50;;;;;;4998046;28;20629;-65
2022/05/19 03:52:13;;;;;;;;;;;22.80;57.50;;;;;;5001444;28;19914;-68
2022/05/19 03:54:39;;;;;;;;;;;22.80;57.50;;;;;;4987567;28;19914;-66
2022/05/19 03:57:06;;;;;;;;;;;22.80;57.50;;;;;;4983456;28;20384;-65
2022/05/19 03:59:32;;;;;;;;;;;22.80;57.50;;;;;;4976998;28;19918;-65
2022/05/19 04:01:57;;;;;;;;;;;22.80;57.40;;;;;;5001805;28;19971;-66
2022/05/19 04:04:23;;;;;;;;;;;22.80;57.40;;;;;;4978983;28;19910;-66
2022/05/19 04:06:48;;;;;;;;;;;22.80;57.40;;;;;;4985353;28;20366;-66
2022/05/19 04:09:13;;;;;;;;;;;22.80;57.40;;;;;;5000290;28;19920;-67
2022/05/19 04:11:39;;;;;;;;;;;22.80;57.30;;;;;;5003419;28;19924;-65
2022/05/19 04:14:04;;;;;;;;;;;22.80;57.30;;;;;;4979216;28;19921;-68
2022/05/19 04:16:30;;;;;;;;;;;22.80;57.40;;;;;;4983062;28;20313;-67
2022/05/19 04:18:55;;;;;;;;;;;22.80;57.30;;;;;;4986247;28;19967;-65
2022/05/19 04:21:21;;;;;;;;;;;22.80;57.30;;;;;;4984781;28;19913;-65
2022/05/19 04:23:46;;;;;;;;;;;22.80;57.20;;;;;;5000366;28;19909;-66
2022/05/19 04:26:12;;;;;;;;;;;22.80;57.20;;;;;;4983416;28;19964;-66
2022/05/19 04:28:37;;;;;;;;;;;22.80;57.20;;;;;;4982116;28;19914;-67
2022/05/19 04:31:03;;;;;;;;;;;22.80;57.40;;;;;;5001476;28;20384;-66
2022/05/19 04:33:28;;;;;;;;;;;22.90;57.50;;;;;;5002091;28;19995;-67
2022/05/19 04:35:54;;;;;;;;;;;22.90;57.80;;;;;;4983667;28;19918;-68
2022/05/19 04:38:19;;;;;;;;;;;22.90;57.90;;;;;;4981118;28;20022;-65
2022/05/19 04:40:47;;;;;;;;;;;22.90;58.30;;;;;;4997430;28;19917;-67
2022/05/19 04:43:13;;;;;;;;;;;22.90;58.30;;;;;;4998698;28;19921;-68
2022/05/19 04:45:39;;;;;;;;;;;22.90;58.30;;;;;;4982892;28;19913;-71
2022/05/19 04:48:04;;;;;;;;;;;23.00;58.20;;;;;;4981408;28;19910;-69
2022/05/19 04:50:30;;;;;;;;;;;23.00;58.20;;;;;;4995155;28;19914;-75
2022/05/19 04:52:57;;;;;;;;;;;23.00;58.10;;;;;;4984887;28;19941;-69
2022/05/19 04:55:22;;;;;;;;;;;23.00;58.10;;;;;;4992249;28;20393;-68
2022/05/19 04:57:48;;;;;;;;;;;23.00;58.40;;;;;;4980743;28;19917;-68
2022/05/19 05:00:13;;;;;;;;;;;23.00;58.00;;;;;;4989415;28;20384;-70
2022/05/19 05:02:39;;;;;;;;;;;23.00;58.10;;;;;;5001030;28;19922;-70
2022/05/19 05:05:05;;;;;;;;;;;23.00;57.80;;;;;;4993175;28;19910;-70
2022/05/19 05:07:30;;;;;;;;;;;23.00;57.70;;;;;;4980663;28;20689;-71
2022/05/19 05:09:56;;;;;;;;;;;23.00;57.70;;;;;;4985245;28;19914;-71
2022/05/19 05:12:21;;;;;;;;;;;23.00;57.60;;;;;;5000302;28;20510;-71
2022/05/19 05:14:47;;;;;;;;;;;23.00;57.60;;;;;;4997429;28;19934;-76
2022/05/19 05:17:12;;;;;;;;;;;23.00;57.30;;;;;;4981274;28;19921;-70
2022/05/19 05:19:38;;;;;;;;;;;23.10;57.30;;;;;;4981666;28;19914;-69
2022/05/19 05:22:03;;;;;;;;;;;23.10;57.00;;;;;;5000464;28;20376;-67
2022/05/19 05:24:29;;;;;;;;;;;23.10;56.80;;;;;;4984571;28;19916;-67
2022/05/19 05:26:54;;;;;;;;;;;23.10;57.00;;;;;;4981218;28;19921;-69
2022/05/19 05:29:20;;;;;;;;;;;23.10;57.00;;;;;;4978978;28;19922;-68
2022/05/19 05:31:46;;;;;;;;;;;23.10;56.90;;;;;;4996672;28;19913;-70
2022/05/19 05:34:11;;;;;;;;;;;23.10;56.80;;;;;;4982471;28;20198;-69
2022/05/19 05:36:37;;;;;;;;;;;23.10;57.30;;;;;;4966118;28;19929;-69
2022/05/19 05:39:03;;;;;;;;;;;23.10;57.30;;;;;;4962150;28;19922;-70
2022/05/19 05:41:28;;;;;;;;;;;23.10;57.30;;;;;;4991938;28;19925;-68
2022/05/19 05:43:54;;;;;;;;;;;23.10;57.50;;;;;;4999300;28;20327;-69
2022/05/19 05:46:19;;;;;;;;;;;23.10;57.20;;;;;;4988913;28;19914;-68
2022/05/19 05:48:45;;;;;;;;;;;23.10;57.50;;;;;;4963417;28;19928;-67
2022/05/19 05:51:11;;;;;;;;;;;23.10;57.70;;;;;;4990789;28;19940;-69
2022/05/19 05:53:36;;;;;;;;;;;23.10;57.50;;;;;;5003549;28;20404;-67
2022/05/19 05:56:03;;;;;;;;;;;23.10;57.30;;;;;;4991583;28;19924;-68
2022/05/19 05:58:28;;;;;;;;;;;23.20;57.50;;;;;;4981844;28;19925;-67
2022/05/19 06:00:54;;;;;;;;;;;23.10;58.40;;;;;;4987488;28;19922;-68
2022/05/19 06:03:19;;;;;;;;;;;23.10;57.60;;;;;;5003673;28;19925;-68
2022/05/19 06:05:45;;;;;;;;;;;23.10;57.50;;;;;;4973831;28;20439;-68
2022/05/19 06:08:10;;;;;;;;;;;23.10;57.60;;;;;;4982505;28;19921;-68
2022/05/19 06:10:35;;;;;;;;;;;23.10;57.70;;;;;;4982944;28;19989;-67
2022/05/19 06:13:01;;;;;;;;;;;23.10;57.40;;;;;;5003247;28;19910;-67
2022/05/19 06:15:26;;;;;;;;;;;23.10;57.00;;;;;;4999600;28;19917;-69
2022/05/19 06:17:52;;;;;;;;;;;23.10;57.10;;;;;;4967320;28;20288;-66
2022/05/19 06:20:18;;;;;;;;;;;23.10;57.00;;;;;;4980410;28;19914;-69
2022/05/19 06:22:44;;;;;;;;;;;23.10;56.90;;;;;;5001861;28;19917;-65
2022/05/19 06:25:10;;;;;;;;;;;23.10;56.80;;;;;;4978489;28;19943;-67
2022/05/19 06:27:35;;;;;;;;;;;23.10;56.40;;;;;;4986616;28;19925;-68
2022/05/19 06:30:01;;;;;;;;;;;23.10;56.10;;;;;;4955504;28;19918;-67
2022/05/19 06:32:26;;;;;;;;;;;23.10;56.00;;;;;;4981314;28;19918;-68
2022/05/19 06:34:52;;;;;;;;;;;23.10;56.50;;;;;;4993187;28;19924;-67
2022/05/19 06:37:17;;;;;;;;;;;23.10;56.70;;;;;;4990078;28;19921;-67
2022/05/19 06:39:43;;;;;;;;;;;23.10;56.80;;;;;;4973621;28;19922;-66
2022/05/19 06:42:14;;;;;;;;;;;23.10;56.90;;;;;;4994274;28;19964;-67
2022/05/19 06:44:40;;;;;;;;;;;23.10;56.90;;;;;;4993461;28;20258;-67
2022/05/19 06:47:13;;;;;;;;;;;23.00;56.90;;;;;;5008778;28;19910;-71
2022/05/19 06:49:45;;;;;;;;;;;23.00;56.60;;;;;;4972556;28;20377;-70
2022/05/19 06:52:11;;;;;;;;;;;23.00;57.00;;;;;;4976608;28;20004;-70
2022/05/19 06:54:37;;;;;;;;;;;23.00;56.70;;;;;;4990288;28;19913;-71
2022/05/19 06:57:02;;;;;;;;;;;22.90;55.80;;;;;;4995062;28;19910;-68
2022/05/19 06:59:28;;;;;;;;;;;22.90;54.90;;;;;;4983141;28;19917;-69
2022/05/19 07:01:54;;;;;;;;;;;22.90;55.20;;;;;;4979217;28;24459;-69
2022/05/19 07:04:19;;;;;;;;;;;22.80;53.60;;;;;;5001667;28;20588;-70
2022/05/19 07:06:45;;;;;;;;;;;22.80;54.40;;;;;;4972831;28;20352;-69
2022/05/19 07:09:11;;;;;;;;;;;22.80;54.20;;;;;;4982141;28;19913;-70
2022/05/19 07:11:36;;;;;;;;;;;22.80;54.00;;;;;;4990053;28;19925;-69
2022/05/19 07:14:03;;;;;;;;;;;22.80;53.20;;;;;;5002131;28;19910;-70
2022/05/19 07:16:29;;;;;;;;;;;22.80;53.60;;;;;;4992743;28;20611;-69
2022/05/19 07:20:43;;;;;;;;;;;22.80;54.60;;;;;;4980901;28;19921;-69
2022/05/19 07:21:43;;;;;;;;;;;22.80;55.50;;;;;;4983894;28;19941;-69
2022/05/19 07:24:10;;;;;;;;;;;22.90;55.40;;;;;;4985760;28;20416;-68
2022/05/19 07:26:35;;;;;;;;;;;22.90;55.30;;;;;;5002272;28;19917;-68
2022/05/19 07:29:01;;;;;;;;;;;22.90;55.00;;;;;;4982682;28;19925;-68
2022/05/19 07:31:27;;;;;;;;;;;22.90;55.00;;;;;;4982655;28;19964;-69
2022/05/19 07:33:53;;;;;;;;;;;22.90;54.80;;;;;;4999461;28;19914;-68
2022/05/19 07:36:18;;;;;;;;;;;22.90;55.20;;;;;;4976014;28;19913;-72
2022/05/19 07:38:44;;;;;;;;;;;22.90;55.10;;;;;;4968080;28;19921;-69
2022/05/19 07:41:09;;;;;;;;;;;22.90;55.30;;;;;;4972714;28;19917;-68
2022/05/19 07:43:37;;;;;;;;;;;22.90;55.20;;;;;;4997093;28;19931;-68
2022/05/19 07:46:04;;;;;;;;;;;22.90;55.20;;;;;;4994166;28;20391;-68
2022/05/19 07:48:29;;;;;;;;;;;22.90;55.60;;;;;;4988265;28;19920;-67
2022/05/19 07:50:54;;;;;;;;;;;22.90;55.90;;;;;;4953613;28;19947;-67
2022/05/19 07:53:20;;;;;;;;;;;22.90;56.00;;;;;;4993232;28;20488;-69
2022/05/19 07:55:46;;;;;;;;;;;22.90;55.90;;;;;;4991854;28;19916;-67
2022/05/19 07:58:11;;;;;;;;;;;22.90;56.20;;;;;;4991759;28;19929;-67
2022/05/19 08:00:36;;;;;;;;;;;22.90;56.20;;;;;;4971196;28;20292;-68
2022/05/19 08:03:02;;;;;;;;;;;22.90;56.30;;;;;;4996682;28;19929;-67
2022/05/19 08:05:27;;;;;;;;;;;22.90;56.30;;;;;;4990436;28;19921;-67
2022/05/19 08:07:53;;;;;;;;;;;22.90;56.50;;;;;;4979219;28;20258;-68
2022/05/19 08:10:23;;;;;;;;;;;22.90;56.60;;;;;;4970257;28;20314;-68
2022/05/19 08:15:35;;;;;;;;;;;23.00;56.70;;;;;;4992976;28;20023;-67
2022/05/19 08:18:05;;;;;;;;;;;22.90;56.80;;;;;;4995994;28;20389;-68
2022/05/19 08:20:31;;;;;;;;;;;22.90;56.90;;;;;;4970682;28;19916;-68
2022/05/19 08:22:56;;;;;;;;;;;22.90;56.90;;;;;;4984433;28;19917;-68
2022/05/19 08:25:26;;;;;;;;;;;22.90;56.90;;;;;;4990937;28;19993;-67
2022/05/19 08:27:55;;;;;;;;;;;22.90;56.90;;;;;;4997788;28;20410;-68
2022/05/19 08:30:20;;;;;;;;;;;22.90;57.10;;;;;;4949697;28;19918;-67
2022/05/19 08:32:46;;;;;;;;;;;23.00;57.10;;;;;;4982317;28;19921;-71
2022/05/19 08:35:11;;;;;;;;;;;22.90;57.10;;;;;;4990785;28;20257;-67
2022/05/19 08:37:37;;;;;;;;;;;22.90;57.20;;;;;;5013112;28;20384;-67
2022/05/19 08:40:02;;;;;;;;;;;22.90;57.00;;;;;;4971297;28;19917;-68
2022/05/19 08:42:29;;;;;;;;;;;22.90;57.20;;;;;;4981337;28;19945;-68
2022/05/19 08:44:55;;;;;;;;;;;22.90;57.20;;;;;;4986204;28;19917;-69
2022/05/19 08:47:22;;;;;;;;;;;22.90;57.30;;;;;;4984603;28;19919;-67
2022/05/19 08:49:49;;;;;;;;;;;23.00;57.20;;;;;;4988577;28;19920;-67
2022/05/19 08:52:15;;;;;;;;;;;22.90;56.80;;;;;;4982410;28;20305;-67
2022/05/19 08:54:42;;;;;;;;;;;23.00;57.30;;;;;;4974835;28;19918;-69
2022/05/19 08:57:16;;;;;;;;;;;23.00;57.10;;;;;;4980906;28;19914;-68
2022/05/19 08:59:51;;;;;;;;;;;23.00;57.40;;;;;;4964042;28;19924;-68
2022/05/19 09:02:18;;;;;;;;;;;23.00;57.50;;;;;;4983487;28;19933;-69
2022/05/19 09:04:58;;;;;;;;;;;22.90;57.40;;;;;;4974079;28;20385;-68
2022/05/19 09:10:19;;;;;;;;;;;22.90;57.30;;;;;;4987011;28;20485;-67
2022/05/19 09:12:45;;;;;;;;;;;23.00;57.50;;;;;;5011245;28;19918;-67
2022/05/19 09:15:10;;;;;;;;;;;23.00;57.40;;;;;;4966688;28;19921;-67
2022/05/19 09:17:40;;;;;;;;;;;23.00;57.40;;;;;;4961452;28;19965;-68
2022/05/19 09:20:13;;;;;;;;;;;22.90;57.30;;;;;;4976371;28;20000;-71
2022/05/19 09:22:39;;;;;;;;;;;23.00;57.50;;;;;;4973091;28;19993;-68
2022/05/19 09:25:06;;;;;;;;;;;23.00;57.30;;;;;;4976036;28;19918;-67
2022/05/19 09:27:33;;;;;;;;;;;23.00;57.60;;;;;;4963967;28;19914;-68
2022/05/19 09:29:58;;;;;;;;;;;23.00;57.50;;;;;;4967654;28;20432;-67
2022/05/19 09:32:29;;;;;;;;;;;23.00;57.30;;;;;;4999863;28;19921;-68
2022/05/19 09:35:27;;;;;;;;;;;23.00;57.40;;;;;;4959713;28;19964;-67
2022/05/19 09:38:12;;;;;;;;;;;23.00;57.50;;;;;;4957459;28;19968;-67
2022/05/19 09:40:39;;;;;;;;;;;23.00;57.30;;;;;;4988873;28;20387;-67
2022/05/19 09:43:08;;;;;;;;;;;23.00;57.40;;;;;;4999378;28;20458;-67
2022/05/19 09:45:38;;;;;;;;;;;23.00;57.50;;;;;;4974736;28;20469;-67
2022/05/19 09:48:04;;;;;;;;;;;23.00;57.50;;;;;;4980314;28;19917;-68
2022/05/19 09:50:31;;;;;;;;;;;23.00;57.50;;;;;;4984994;28;19924;-67
2022/05/19 09:53:01;;;;;;;;;;;23.00;57.40;;;;;;4999971;28;20372;-69
2022/05/19 09:55:27;;;;;;;;;;;23.00;57.50;;;;;;4977599;28;19921;-65
2022/05/19 09:57:54;;;;;;;;;;;23.00;57.30;;;;;;4980390;28;19914;-65
2022/05/19 10:00:36;;;;;;;;;;;23.00;57.40;;;;;;4978175;28;19925;-66
2022/05/19 10:03:01;;;;;;;;;;;23.00;57.50;;;;;;4999617;28;19961;-67
2022/05/19 10:05:31;;;;;;;;;;;23.00;57.30;;;;;;4977937;28;19949;-67
2022/05/19 10:07:58;;;;;;;;;;;23.00;57.40;;;;;;4980448;28;19946;-68
2022/05/19 10:10:25;;;;;;;;;;;23.00;57.40;;;;;;4978229;28;19996;-67
2022/05/19 10:12:54;;;;;;;;;;;23.00;57.70;;;;;;4998988;28;19925;-67
2022/05/19 10:15:20;;;;;;;;;;;23.00;57.40;;;;;;4979796;28;19925;-67
2022/05/19 10:17:53;;;;;;;;;;;23.10;57.30;;;;;;4979953;28;19929;-67
2022/05/19 10:20:19;;;;;;;;;;;23.00;57.30;;;;;;4974874;28;19913;-67
2022/05/19 10:23:04;;;;;;;;;;;23.10;57.50;;;;;;5010272;28;20367;-67
2022/05/19 10:25:35;;;;;;;;;;;23.10;57.60;;;;;;4940652;28;19917;-71
2022/05/19 10:31:07;;;;;;;;;;;23.10;57.70;;;;;;4989203;28;20411;-67
2022/05/19 10:33:48;;;;;;;;;;;23.10;57.50;;;;;;4999267;28;19917;-67
2022/05/19 10:36:33;;;;;;;;;;;23.10;57.50;;;;;;4976362;28;20405;-67
2022/05/19 10:39:21;;;;;;;;;;;23.10;57.70;;;;;;4983080;28;19922;-68
2022/05/19 10:41:53;;;;;;;;;;;23.10;57.50;;;;;;4987781;28;19913;-67
2022/05/19 10:44:32;;;;;;;;;;;23.10;57.50;;;;;;4986593;28;19918;-70
2022/05/19 10:47:05;;;;;;;;;;;23.10;57.60;;;;;;4987355;28;20016;-71
2022/05/19 10:49:39;;;;;;;;;;;23.10;57.60;;;;;;4967489;28;19918;-67
2022/05/19 10:52:16;;;;;;;;;;;23.10;57.50;;;;;;5004314;28;19914;-67
2022/05/19 10:54:54;;;;;;;;;;;23.10;57.50;;;;;;4998993;28;19910;-71
2022/05/19 10:57:27;;;;;;;;;;;23.10;57.60;;;;;;4984842;28;20126;-71
2022/05/19 10:59:52;;;;;;;;;;;23.10;57.50;;;;;;4953496;28;20266;-67
2022/05/19 11:02:21;;;;;;;;;;;23.10;57.60;;;;;;5015776;28;20214;-66
2022/05/19 11:04:49;;;;;;;;;;;23.10;57.50;;;;;;4987933;28;19960;-67
2022/05/19 11:07:17;;;;;;;;;;;23.10;57.50;;;;;;5001301;28;19922;-67
2022/05/19 11:09:47;;;;;;;;;;;23.10;57.40;;;;;;4974681;28;19918;-68
2022/05/19 11:12:31;;;;;;;;;;;23.20;57.70;;;;;;4998030;28;20745;-68
2022/05/19 11:15:02;;;;;;;;;;;23.20;57.50;;;;;;4991140;28;19913;-69
2022/05/19 11:17:30;;;;;;;;;;;23.20;57.40;;;;;;4969406;28;19949;-68
2022/05/19 11:20:00;;;;;;;;;;;23.10;57.40;;;;;;4952875;28;19914;-67
2022/05/19 11:22:26;;;;;;;;;;;23.10;57.50;;;;;;4998238;28;19932;-67
2022/05/19 11:27:43;;;;;;;;;;;23.20;57.50;;;;;;4998498;28;19925;-67
2022/05/19 11:30:09;;;;;;;;;;;23.20;57.40;;;;;;4950563;28;20051;-68
2022/05/19 11:32:35;;;;;;;;;;;23.20;57.30;;;;;;4997929;28;19916;-67
2022/05/19 11:35:15;;;;;;;;;;;23.20;57.30;;;;;;4989364;28;19917;-67
2022/05/19 11:37:53;;;;;;;;;;;23.20;57.30;;;;;;4976696;28;20391;-68
2022/05/19 11:40:20;;;;;;;;;;;23.20;57.40;;;;;;4949968;28;20069;-68
2022/05/19 11:43:04;;;;;;;;;;;23.20;57.20;;;;;;4997642;28;19917;-68
2022/05/19 11:45:33;;;;;;;;;;;23.20;57.20;;;;;;4995189;28;19913;-67
2022/05/19 11:56:18;;;;;;;;;;;23.20;57.30;;;;;;4998822;28;19920;-66
2022/05/19 11:58:43;;;;;;;;;;;23.20;57.30;;;;;;4965027;28;20262;-68
2022/05/19 12:01:19;;;;;;;;;;;23.20;57.30;;;;;;4950652;28;19918;-67
2022/05/19 12:03:50;;;;;;;;;;;23.20;57.40;;;;;;4997846;28;19930;-68
2022/05/19 12:06:19;;;;;;;;;;;23.20;57.40;;;;;;4990333;28;19936;-68
2022/05/19 12:08:58;;;;;;;;;;;23.20;57.70;;;;;;4980888;28;19921;-67
2022/05/19 12:11:25;;;;;;;;;;;23.20;57.30;;;;;;4970454;28;19920;-67
2022/05/19 12:13:51;;;;;;;;;;;23.20;57.30;;;;;;4984734;28;19917;-70
2022/05/19 12:16:22;;;;;;;;;;;23.30;57.40;;;;;;4990832;28;20287;-69
2022/05/19 12:19:04;;;;;;;;;;;23.20;57.30;;;;;;4984746;28;20373;-71
2022/05/19 12:21:51;;;;;;;;;;;23.30;57.30;;;;;;4982180;28;20431;-69
2022/05/19 12:24:17;;;;;;;;;;;23.30;57.40;;;;;;5017078;28;19918;-68
2022/05/19 12:27:04;;;;;;;;;;;23.20;57.40;;;;;;4971912;28;19916;-70
2022/05/19 12:29:31;;;;;;;;;;;23.30;57.40;;;;;;4942433;28;19933;-68
2022/05/19 12:31:59;;;;;;;;;;;23.30;57.40;;;;;;4969879;28;19925;-70
2022/05/19 12:34:32;;;;;;;;;;;23.30;57.30;;;;;;5001086;28;19913;-68
2022/05/19 12:37:10;;;;;;;;;;;23.30;57.50;;;;;;4969150;28;20368;-68
2022/05/19 12:39:45;;;;;;;;;;;23.30;57.50;;;;;;4982382;28;19945;-70
2022/05/19 12:42:32;;;;;;;;;;;23.30;57.50;;;;;;4958704;28;19996;-69
2022/05/19 12:44:58;;;;;;;;;;;23.30;57.50;;;;;;4987633;28;20008;-70
2022/05/19 12:47:30;;;;;;;;;;;23.30;57.40;;;;;;4996895;28;19922;-69
2022/05/19 12:50:01;;;;;;;;;;;23.30;57.50;;;;;;4951683;28;19914;-70
2022/05/19 12:52:45;;;;;;;;;;;23.30;57.50;;;;;;4984593;28;19924;-70
2022/05/19 12:55:22;;;;;;;;;;;23.40;58.20;;;;;;4990559;28;20007;-69
2022/05/19 12:57:48;;;;;;;;;;;23.40;57.60;;;;;;5005648;28;19920;-69
2022/05/19 13:00:18;;;;;;;;;;;23.40;57.70;;;;;;4972204;28;19948;-68
2022/05/19 13:02:55;;;;;;;;;;;23.40;57.80;;;;;;4984713;28;19999;-69
2022/05/19 13:05:21;;;;;;;;;;;23.40;57.80;;;;;;4987590;28;19913;-69
2022/05/19 13:07:54;;;;;;;;;;;23.40;57.90;;;;;;5007908;28;19961;-68
2022/05/19 13:10:20;;;;;;;;;;;23.40;57.80;;;;;;4949547;28;19921;-70
2022/05/19 13:13:21;;;;;;;;;;;23.40;57.80;;;;;;4984206;28;20377;-69
2022/05/19 13:15:57;;;;;;;;;;;23.40;58.00;;;;;;4900522;29;19918;-69
2022/05/19 13:18:24;;;;;;;;;;;23.40;57.90;;;;;;4983070;28;19928;-69
2022/05/19 13:20:49;;;;;;;;;;;23.40;58.00;;;;;;4969964;28;20371;-68
2022/05/19 13:23:18;;;;;;;;;;;23.40;57.80;;;;;;4986826;28;19964;-69
2022/05/19 13:25:44;;;;;;;;;;;23.40;57.80;;;;;;4993344;28;19921;-69
2022/05/19 13:30:56;;;;;;;;;;;23.40;57.80;;;;;;4976559;28;20466;-69
2022/05/19 13:33:22;;;;;;;;;;;23.40;57.90;;;;;;4993469;28;19917;-69
2022/05/19 13:35:57;;;;;;;;;;;23.40;57.90;;;;;;4972348;28;20372;-69
2022/05/19 13:38:23;;;;;;;;;;;23.40;57.90;;;;;;4994344;28;20304;-68
2022/05/19 13:40:48;;;;;;;;;;;23.40;57.80;;;;;;4953609;28;19921;-69
2022/05/19 13:43:21;;;;;;;;;;;23.40;57.80;;;;;;4984434;28;19913;-69
2022/05/19 13:45:55;;;;;;;;;;;23.40;57.90;;;;;;4971358;28;19913;-69
2022/05/19 13:48:39;;;;;;;;;;;23.40;57.80;;;;;;4996330;28;19914;-69
2022/05/19 13:51:24;;;;;;;;;;;23.50;57.90;;;;;;4970428;28;25684;-69
2022/05/19 13:53:52;;;;;;;;;;;23.50;57.90;;;;;;4986718;28;19914;-70
2022/05/19 13:56:21;;;;;;;;;;;23.50;58.00;;;;;;4988442;28;20028;-70
2022/05/19 13:58:47;;;;;;;;;;;23.50;57.80;;;;;;4993044;28;19957;-69
2022/05/19 14:01:16;;;;;;;;;;;23.50;57.80;;;;;;4968720;28;20423;-69
2022/05/19 14:03:41;;;;;;;;;;;23.50;57.90;;;;;;4977076;28;21181;-68
2022/05/19 14:06:07;;;;;;;;;;;23.50;57.80;;;;;;4977435;28;20495;-70
2022/05/19 14:08:33;;;;;;;;;;;23.50;57.80;;;;;;4974867;28;19917;-69
2022/05/19 14:10:58;;;;;;;;;;;23.50;57.80;;;;;;4949216;28;19914;-69
2022/05/19 14:13:26;;;;;;;;;;;23.50;57.70;;;;;;4982083;28;20476;-69
2022/05/19 14:15:54;;;;;;;;;;;23.60;57.80;;;;;;5003580;28;20368;-69
2022/05/19 14:18:23;;;;;;;;;;;23.60;57.80;;;;;;5003048;28;20377;-71
2022/05/19 14:20:56;;;;;;;;;;;23.50;57.90;;;;;;4983457;28;19921;-69
2022/05/19 14:23:24;;;;;;;;;;;23.50;57.90;;;;;;4967362;28;20012;-68
2022/05/19 14:25:51;;;;;;;;;;;23.60;58.00;;;;;;5003602;28;19914;-70
2022/05/19 14:28:27;;;;;;;;;;;23.60;58.00;;;;;;5003311;28;20631;-70
2022/05/19 14:30:56;;;;;;;;;;;23.60;57.90;;;;;;4985126;28;19913;-69
2022/05/19 14:33:22;;;;;;;;;;;23.60;58.10;;;;;;4984753;28;19910;-69
2022/05/19 14:35:48;;;;;;;;;;;23.60;57.90;;;;;;5000878;28;19924;-69
2022/05/19 14:38:15;;;;;;;;;;;23.60;57.90;;;;;;5005128;28;20419;-69
2022/05/19 14:43:26;;;;;;;;;;;23.60;58.10;;;;;;4983587;28;19925;-69
2022/05/19 14:45:58;;;;;;;;;;;23.60;58.00;;;;;;4999591;28;19922;-69
2022/05/19 14:48:28;;;;;;;;;;;23.60;58.10;;;;;;5001322;28;19921;-71